Time;durP1;ratioP1;P1;durP2;ratioP2;P2;SDS_P1;SDS_P2;PMS_P1;PMS_P2;Temp;Humidity;BMP_temperature;BMP_pressure;BME280_temperature;BME280_humidity;BME280_pressure;Samples;Min_cycle;Max_cycle;Signal;HPM_P1;HPM_P2
2023/09/14 00:00:44;;;;;;;2.60;2.23;;;;;;;;;;5077328;28;20227;-71
2023/09/14 00:03:13;;;;;;;2.50;2.30;;;;;;;;;;5077607;28;20227;-71
2023/09/14 00:05:42;;;;;;;2.90;2.57;;;;;;;;;;5077716;28;20212;-71
2023/09/14 00:08:10;;;;;;;2.70;2.50;;;;;;;;;;5077220;28;20651;-71
2023/09/14 00:10:38;;;;;;;2.17;2.07;;;;;;;;;;5077334;28;20232;-71
2023/09/14 00:13:06;;;;;;;2.43;2.10;;;;;;;;;;5077358;28;20588;-70
2023/09/14 00:15:35;;;;;;;2.17;2.07;;;;;;;;;;5077608;28;20211;-70
2023/09/14 00:18:04;;;;;;;5.07;2.30;;;;;;;;;;5077235;28;20204;-70
2023/09/14 00:20:34;;;;;;;2.10;2.00;;;;;;;;;;5077292;28;20657;-70
2023/09/14 00:23:03;;;;;;;4.30;1.93;;;;;;;;;;5077035;28;20647;-70
2023/09/14 00:25:31;;;;;;;4.57;2.00;;;;;;;;;;5077327;28;20207;-70
2023/09/14 00:27:59;;;;;;;2.27;2.07;;;;;;;;;;5077214;28;20689;-70
2023/09/14 00:30:27;;;;;;;2.57;2.37;;;;;;;;;;5077428;28;20364;-70
2023/09/14 00:32:55;;;;;;;2.40;2.07;;;;;;;;;;5077194;28;20305;-70
2023/09/14 00:35:25;;;;;;;2.30;2.10;;;;;;;;;;5077378;28;20204;-70
2023/09/14 00:37:53;;;;;;;3.17;2.10;;;;;;;;;;5077167;28;20219;-70
2023/09/14 00:40:21;;;;;;;2.73;2.00;;;;;;;;;;5076685;28;20232;-71
2023/09/14 00:42:50;;;;;;;2.47;2.27;;;;;;;;;;5077259;28;20285;-70
2023/09/14 00:45:20;;;;;;;2.43;2.23;;;;;;;;;;5064699;28;20200;-70
2023/09/14 00:47:47;;;;;;;2.37;2.17;;;;;;;;;;5069240;28;20204;-70
2023/09/14 00:50:16;;;;;;;2.80;2.17;;;;;;;;;;5077074;28;20703;-70
2023/09/14 00:52:47;;;;;;;2.80;2.60;;;;;;;;;;5077314;28;20204;-70
2023/09/14 00:55:17;;;;;;;2.40;2.20;;;;;;;;;;5076477;28;20208;-70
2023/09/14 00:57:46;;;;;;;2.10;2.00;;;;;;;;;;5076886;28;20207;-70
2023/09/14 01:00:14;;;;;;;3.50;2.30;;;;;;;;;;5076823;28;20255;-70
2023/09/14 01:02:43;;;;;;;4.60;2.30;;;;;;;;;;5076774;28;20307;-70
2023/09/14 01:05:12;;;;;;;2.43;2.27;;;;;;;;;;5080494;28;20242;-71
2023/09/14 01:07:41;;;;;;;2.30;2.10;;;;;;;;;;5080679;28;20211;-71
2023/09/14 01:10:10;;;;;;;2.70;2.20;;;;;;;;;;5080280;28;20230;-70
2023/09/14 01:12:39;;;;;;;2.60;2.40;;;;;;;;;;5080363;28;20210;-70
2023/09/14 01:15:09;;;;;;;2.50;2.30;;;;;;;;;;5080394;28;20619;-70
2023/09/14 01:17:41;;;;;;;2.60;2.40;;;;;;;;;;5080542;28;20211;-71
2023/09/14 01:20:19;;;;;;;3.47;2.50;;;;;;;;;;5070363;28;20250;-71
2023/09/14 01:22:52;;;;;;;2.23;2.00;;;;;;;;;;5068296;28;20258;-71
2023/09/14 01:25:26;;;;;;;2.53;2.33;;;;;;;;;;5080089;28;20210;-71
2023/09/14 01:27:58;;;;;;;4.70;2.37;;;;;;;;;;5080219;28;20277;-71
2023/09/14 01:30:26;;;;;;;2.60;2.40;;;;;;;;;;5074906;28;20636;-71
2023/09/14 01:32:54;;;;;;;2.77;2.50;;;;;;;;;;5080342;28;20215;-71
2023/09/14 01:35:22;;;;;;;2.10;2.00;;;;;;;;;;5079807;28;20258;-71
2023/09/14 01:37:50;;;;;;;4.00;2.30;;;;;;;;;;5080038;28;20204;-71
2023/09/14 01:40:18;;;;;;;2.43;2.23;;;;;;;;;;5079688;28;20234;-71
2023/09/14 01:42:47;;;;;;;4.63;2.10;;;;;;;;;;5080060;28;20244;-71
2023/09/14 01:45:16;;;;;;;3.00;2.70;;;;;;;;;;5079693;28;20296;-71
2023/09/14 01:47:46;;;;;;;4.73;3.00;;;;;;;;;;5079767;28;20678;-71
2023/09/14 01:50:14;;;;;;;3.63;2.70;;;;;;;;;;5079893;28;20265;-71
2023/09/14 01:52:42;;;;;;;2.50;2.30;;;;;;;;;;5079896;28;20209;-71
2023/09/14 01:55:12;;;;;;;3.17;2.43;;;;;;;;;;5079122;28;20210;-71
2023/09/14 01:57:40;;;;;;;3.87;2.07;;;;;;;;;;5079733;28;20207;-71
2023/09/14 02:00:09;;;;;;;2.57;2.37;;;;;;;;;;5079730;28;20233;-71
2023/09/14 02:02:38;;;;;;;3.20;2.87;;;;;;;;;;5079588;28;20210;-71
2023/09/14 02:05:07;;;;;;;2.60;2.40;;;;;;;;;;5079469;28;20290;-71
2023/09/14 02:07:35;;;;;;;2.60;2.40;;;;;;;;;;5079543;28;20217;-71
2023/09/14 02:10:03;;;;;;;2.90;2.70;;;;;;;;;;5079173;28;20278;-71
2023/09/14 02:12:32;;;;;;;2.40;2.20;;;;;;;;;;5079245;28;20210;-71
2023/09/14 02:15:00;;;;;;;3.23;2.57;;;;;;;;;;5079513;28;20234;-71
2023/09/14 02:17:29;;;;;;;2.77;2.57;;;;;;;;;;5079487;28;20266;-71
2023/09/14 02:19:59;;;;;;;3.53;2.47;;;;;;;;;;5079225;28;20217;-71
2023/09/14 02:22:27;;;;;;;3.53;2.80;;;;;;;;;;5079368;28;20213;-71
2023/09/14 02:24:55;;;;;;;3.77;2.67;;;;;;;;;;5078568;28;20239;-70
2023/09/14 02:27:23;;;;;;;3.03;2.83;;;;;;;;;;5078905;28;20578;-71
2023/09/14 02:29:53;;;;;;;3.30;2.87;;;;;;;;;;5074576;28;20567;-71
2023/09/14 02:32:21;;;;;;;2.97;2.77;;;;;;;;;;5072692;28;20204;-70
2023/09/14 02:34:49;;;;;;;2.73;2.53;;;;;;;;;;5078847;28;20681;-69
2023/09/14 02:37:19;;;;;;;4.03;2.60;;;;;;;;;;5078689;28;20207;-70
2023/09/14 02:39:46;;;;;;;4.00;2.80;;;;;;;;;;5078509;28;20207;-70
2023/09/14 02:42:15;;;;;;;3.73;3.23;;;;;;;;;;5078893;28;20235;-69
2023/09/14 02:44:43;;;;;;;5.37;3.33;;;;;;;;;;5078553;28;20261;-69
2023/09/14 02:47:11;;;;;;;4.10;3.70;;;;;;;;;;5078747;28;20304;-69
2023/09/14 02:49:39;;;;;;;4.27;3.37;;;;;;;;;;5078644;28;20202;-69
2023/09/14 02:52:07;;;;;;;3.93;3.27;;;;;;;;;;5078909;28;20241;-69
2023/09/14 02:54:37;;;;;;;3.47;3.17;;;;;;;;;;5078003;28;20539;-69
2023/09/14 02:57:05;;;;;;;3.67;3.37;;;;;;;;;;5078236;28;20241;-69
2023/09/14 02:59:33;;;;;;;7.20;3.37;;;;;;;;;;5078493;28;20210;-69
2023/09/14 03:02:02;;;;;;;4.57;4.07;;;;;;;;;;5078261;28;20213;-70
2023/09/14 03:04:30;;;;;;;4.47;3.90;;;;;;;;;;5078379;28;20226;-71
2023/09/14 03:06:58;;;;;;;5.60;3.93;;;;;;;;;;5078417;28;20206;-70
2023/09/14 03:09:26;;;;;;;4.37;3.43;;;;;;;;;;5078064;28;20206;-70
2023/09/14 03:11:56;;;;;;;6.70;3.60;;;;;;;;;;5078239;28;20283;-69
2023/09/14 03:14:24;;;;;;;4.23;3.80;;;;;;;;;;5078033;28;20202;-68
2023/09/14 03:16:52;;;;;;;6.63;3.67;;;;;;;;;;5078355;28;20206;-70
2023/09/14 03:19:20;;;;;;;4.23;3.83;;;;;;;;;;5078072;28;20202;-68
2023/09/14 03:21:48;;;;;;;6.37;4.00;;;;;;;;;;5066767;28;20226;-70
2023/09/14 03:24:16;;;;;;;4.83;4.40;;;;;;;;;;5077524;28;20701;-70
2023/09/14 03:26:45;;;;;;;5.00;4.10;;;;;;;;;;5077683;28;20210;-69
2023/09/14 03:29:15;;;;;;;4.70;4.27;;;;;;;;;;5078100;28;20262;-70
2023/09/14 03:31:43;;;;;;;7.50;4.93;;;;;;;;;;5065657;28;20222;-68
2023/09/14 03:34:11;;;;;;;6.93;4.40;;;;;;;;;;5077734;28;20568;-71
2023/09/14 03:36:39;;;;;;;6.23;4.67;;;;;;;;;;5078003;28;20256;-70
2023/09/14 03:39:08;;;;;;;6.03;4.60;;;;;;;;;;5077590;28;20260;-70
2023/09/14 03:41:36;;;;;;;6.60;4.67;;;;;;;;;;5076906;28;20720;-70
2023/09/14 03:44:04;;;;;;;5.93;4.53;;;;;;;;;;5077073;28;20214;-71
2023/09/14 03:46:33;;;;;;;7.03;4.90;;;;;;;;;;5077549;28;20206;-72
2023/09/14 03:49:02;;;;;;;7.63;4.57;;;;;;;;;;5077048;28;20214;-71
2023/09/14 03:51:30;;;;;;;5.40;4.57;;;;;;;;;;5075097;28;20645;-71
2023/09/14 03:53:58;;;;;;;5.03;4.53;;;;;;;;;;5076969;28;20202;-71
2023/09/14 03:56:27;;;;;;;5.83;5.00;;;;;;;;;;5077074;28;20234;-71
2023/09/14 03:58:57;;;;;;;6.40;4.77;;;;;;;;;;5077384;28;20233;-70
2023/09/14 04:01:25;;;;;;;8.17;5.67;;;;;;;;;;5077042;28;20303;-71
2023/09/14 04:03:55;;;;;;;5.63;4.87;;;;;;;;;;5077040;28;20205;-71
2023/09/14 04:06:23;;;;;;;5.67;5.07;;;;;;;;;;5077104;28;20576;-70
2023/09/14 04:08:51;;;;;;;7.47;5.30;;;;;;;;;;5077009;28;20198;-71
2023/09/14 04:11:19;;;;;;;5.40;4.90;;;;;;;;;;5077056;28;20230;-71
2023/09/14 04:13:47;;;;;;;6.53;5.77;;;;;;;;;;5077366;28;20236;-71
2023/09/14 04:16:15;;;;;;;5.80;5.07;;;;;;;;;;5076491;28;20206;-71
2023/09/14 04:18:44;;;;;;;6.47;5.40;;;;;;;;;;5077525;28;20206;-71
2023/09/14 04:21:13;;;;;;;8.00;5.43;;;;;;;;;;5077399;28;20241;-71
2023/09/14 04:23:41;;;;;;;5.47;4.93;;;;;;;;;;5077001;28;20210;-71
2023/09/14 04:26:09;;;;;;;10.87;5.23;;;;;;;;;;5077375;28;20226;-71
2023/09/14 04:28:37;;;;;;;8.03;5.53;;;;;;;;;;5077214;28;20244;-71
2023/09/14 04:31:08;;;;;;;6.43;5.73;;;;;;;;;;5066144;28;20644;-71
2023/09/14 04:33:36;;;;;;;6.27;5.30;;;;;;;;;;5077283;28;20206;-69
2023/09/14 04:36:05;;;;;;;6.77;6.07;;;;;;;;;;5077071;28;20567;-69
2023/09/14 04:38:35;;;;;;;6.10;5.50;;;;;;;;;;5077745;28;20203;-68
2023/09/14 04:41:04;;;;;;;5.83;5.33;;;;;;;;;;5075442;28;20623;-67
2023/09/14 04:43:32;;;;;;;7.63;5.50;;;;;;;;;;5073556;28;20296;-68
2023/09/14 04:46:01;;;;;;;7.80;5.40;;;;;;;;;;5080578;28;20810;-67
2023/09/14 04:48:29;;;;;;;12.83;5.80;;;;;;;;;;5080461;28;20578;-68
2023/09/14 04:50:57;;;;;;;7.07;5.63;;;;;;;;;;5080912;28;20295;-67
2023/09/14 04:53:26;;;;;;;8.97;6.73;;;;;;;;;;5080397;28;20210;-68
2023/09/14 04:55:56;;;;;;;6.33;5.07;;;;;;;;;;5080364;28;20736;-67
2023/09/14 04:58:24;;;;;;;5.57;4.90;;;;;;;;;;5067455;28;20206;-68
2023/09/14 05:00:53;;;;;;;8.07;5.00;;;;;;;;;;5080414;28;20348;-69
2023/09/14 05:03:22;;;;;;;7.70;5.20;;;;;;;;;;5073403;28;20258;-68
2023/09/14 05:05:51;;;;;;;7.03;5.50;;;;;;;;;;5080709;28;20314;-69
2023/09/14 05:08:19;;;;;;;9.13;5.40;;;;;;;;;;5080290;28;20212;-67
2023/09/14 05:10:49;;;;;;;8.63;5.70;;;;;;;;;;5080586;28;20227;-69
2023/09/14 05:13:20;;;;;;;8.43;5.67;;;;;;;;;;5080624;28;20261;-66
2023/09/14 05:15:49;;;;;;;5.67;5.07;;;;;;;;;;5080614;28;20199;-69
2023/09/14 05:18:17;;;;;;;6.63;5.57;;;;;;;;;;5080173;28;20242;-69
2023/09/14 05:20:45;;;;;;;6.13;4.93;;;;;;;;;;5077411;28;20696;-68
2023/09/14 05:23:13;;;;;;;8.37;5.67;;;;;;;;;;5071329;28;20202;-68
2023/09/14 05:25:41;;;;;;;7.97;6.10;;;;;;;;;;5079837;28;20232;-68
2023/09/14 05:28:09;;;;;;;8.17;5.47;;;;;;;;;;5080279;28;20207;-68
2023/09/14 05:30:39;;;;;;;6.80;5.50;;;;;;;;;;5074032;28;20230;-69
2023/09/14 05:33:08;;;;;;;7.90;5.43;;;;;;;;;;5075464;28;20563;-69
2023/09/14 05:35:37;;;;;;;7.23;4.83;;;;;;;;;;5074664;28;20281;-68
2023/09/14 05:38:05;;;;;;;6.17;4.63;;;;;;;;;;5079904;28;20210;-68
2023/09/14 05:40:33;;;;;;;6.30;4.93;;;;;;;;;;5080513;28;20226;-69
2023/09/14 05:43:01;;;;;;;5.90;4.80;;;;;;;;;;5079925;28;20203;-68
2023/09/14 05:45:29;;;;;;;8.77;4.53;;;;;;;;;;5079214;28;20591;-68
2023/09/14 05:47:58;;;;;;;6.57;5.27;;;;;;;;;;5079788;28;20212;-68
2023/09/14 05:50:26;;;;;;;8.70;5.10;;;;;;;;;;5079177;28;20277;-68
2023/09/14 05:52:56;;;;;;;5.03;4.53;;;;;;;;;;5079526;28;20206;-69
2023/09/14 05:55:24;;;;;;;6.00;4.63;;;;;;;;;;5078896;28;20586;-68
2023/09/14 05:57:53;;;;;;;5.67;4.77;;;;;;;;;;5079397;28;20256;-69
2023/09/14 06:00:21;;;;;;;30.87;6.80;;;;;;;;;;5079657;28;20226;-71
2023/09/14 06:02:49;;;;;;;9.10;5.03;;;;;;;;;;5074019;28;20229;-68
2023/09/14 06:05:19;;;;;;;7.07;4.97;;;;;;;;;;5066516;28;20229;-69
2023/09/14 06:07:53;;;;;;;6.40;4.93;;;;;;;;;;5075335;28;20206;-69
2023/09/14 06:10:22;;;;;;;6.10;4.83;;;;;;;;;;5070163;28;20764;-68
2023/09/14 06:12:51;;;;;;;6.57;5.20;;;;;;;;;;5079308;28;20271;-69
2023/09/14 06:15:19;;;;;;;7.67;5.17;;;;;;;;;;5079010;28;20204;-70
2023/09/14 06:17:50;;;;;;;11.60;5.10;;;;;;;;;;5078919;28;20206;-69
2023/09/14 06:20:20;;;;;;;5.57;4.87;;;;;;;;;;5075266;28;20219;-70
2023/09/14 06:22:48;;;;;;;5.07;4.40;;;;;;;;;;5063645;28;20623;-71
2023/09/14 06:25:16;;;;;;;5.93;4.37;;;;;;;;;;5079004;28;20237;-69
2023/09/14 06:27:45;;;;;;;4.97;4.47;;;;;;;;;;5078901;28;20245;-71
2023/09/14 06:30:13;;;;;;;4.70;3.97;;;;;;;;;;5071723;28;20264;-70
2023/09/14 06:32:42;;;;;;;5.57;4.03;;;;;;;;;;5075778;28;20206;-71
2023/09/14 06:35:10;;;;;;;8.27;4.50;;;;;;;;;;5079002;28;20735;-70
2023/09/14 06:37:40;;;;;;;6.10;4.10;;;;;;;;;;5078883;28;20210;-69
2023/09/14 06:40:09;;;;;;;6.40;3.93;;;;;;;;;;5073795;28;20222;-70
2023/09/14 06:42:38;;;;;;;6.43;4.17;;;;;;;;;;5078607;28;20241;-70
2023/09/14 06:45:07;;;;;;;4.33;3.83;;;;;;;;;;5078886;28;20216;-69
2023/09/14 06:47:35;;;;;;;5.00;4.50;;;;;;;;;;5078630;28;20206;-69
2023/09/14 06:50:04;;;;;;;5.67;4.70;;;;;;;;;;5078478;28;20237;-69
2023/09/14 06:52:32;;;;;;;7.83;5.17;;;;;;;;;;5078275;28;20210;-71
2023/09/14 06:55:02;;;;;;;8.40;4.93;;;;;;;;;;5077975;28;20210;-69
2023/09/14 06:57:30;;;;;;;7.57;5.23;;;;;;;;;;5068468;28;20285;-70
2023/09/14 07:00:00;;;;;;;6.70;4.87;;;;;;;;;;5078046;28;20709;-69
2023/09/14 07:02:28;;;;;;;5.53;4.73;;;;;;;;;;5077808;28;20224;-66
2023/09/14 07:04:56;;;;;;;4.97;4.40;;;;;;;;;;5078237;28;20244;-68
2023/09/14 07:07:25;;;;;;;5.40;4.00;;;;;;;;;;5078201;28;20233;-65
2023/09/14 07:09:53;;;;;;;4.97;4.47;;;;;;;;;;5077837;28;20206;-67
2023/09/14 07:12:22;;;;;;;7.67;5.17;;;;;;;;;;5077200;28;20216;-67
2023/09/14 07:14:50;;;;;;;8.80;4.97;;;;;;;;;;5075138;28;20205;-67
2023/09/14 07:17:18;;;;;;;5.53;4.93;;;;;;;;;;5077999;28;20684;-67
2023/09/14 07:19:50;;;;;;;6.33;4.93;;;;;;;;;;5077794;28;20202;-67
2023/09/14 07:22:18;;;;;;;5.73;4.43;;;;;;;;;;5072787;28;20221;-66
2023/09/14 07:24:46;;;;;;;6.07;4.83;;;;;;;;;;5072357;28;20206;-65
2023/09/14 07:27:15;;;;;;;5.03;4.53;;;;;;;;;;5078080;28;20222;-66
2023/09/14 07:29:45;;;;;;;6.73;5.53;;;;;;;;;;5075603;28;20211;-66
2023/09/14 07:32:13;;;;;;;6.80;4.83;;;;;;;;;;5077827;28;20211;-68
2023/09/14 07:34:42;;;;;;;7.60;4.83;;;;;;;;;;5077806;28;20217;-66
2023/09/14 07:37:10;;;;;;;7.63;5.00;;;;;;;;;;5077770;28;20206;-65
2023/09/14 07:39:43;;;;;;;5.47;4.97;;;;;;;;;;5077412;28;20210;-67
2023/09/14 07:42:12;;;;;;;6.27;5.50;;;;;;;;;;5078057;28;20202;-66
2023/09/14 07:44:40;;;;;;;8.50;5.10;;;;;;;;;;5078019;28;20225;-65
2023/09/14 07:47:09;;;;;;;5.53;4.37;;;;;;;;;;5069947;28;20596;-65
2023/09/14 07:49:37;;;;;;;6.70;5.67;;;;;;;;;;5077163;28;20206;-65
2023/09/14 07:52:06;;;;;;;6.93;5.50;;;;;;;;;;5077950;28;20202;-67
2023/09/14 07:54:35;;;;;;;6.00;5.40;;;;;;;;;;5077402;28;20202;-66
2023/09/14 07:57:03;;;;;;;6.53;5.10;;;;;;;;;;5071821;28;20693;-66
2023/09/14 07:59:31;;;;;;;8.30;4.93;;;;;;;;;;5077789;28;20202;-66
2023/09/14 08:01:59;;;;;;;6.93;5.17;;;;;;;;;;5077816;28;20230;-67
2023/09/14 08:04:29;;;;;;;7.00;4.87;;;;;;;;;;5075044;28;20210;-67
2023/09/14 08:06:57;;;;;;;5.60;4.33;;;;;;;;;;5076799;28;20313;-66
2023/09/14 08:09:25;;;;;;;5.27;4.63;;;;;;;;;;5077206;28;20238;-65
2023/09/14 08:11:53;;;;;;;6.03;4.93;;;;;;;;;;5077501;28;20226;-66
2023/09/14 08:14:21;;;;;;;6.47;4.37;;;;;;;;;;5081486;28;20206;-66
2023/09/14 08:16:51;;;;;;;5.93;5.00;;;;;;;;;;5081633;28;20285;-66
2023/09/14 08:19:19;;;;;;;7.20;4.40;;;;;;;;;;5081332;28;20234;-66
2023/09/14 08:21:49;;;;;;;5.77;4.83;;;;;;;;;;5080621;28;20709;-66
2023/09/14 08:24:21;;;;;;;6.67;4.80;;;;;;;;;;5081236;28;20209;-66
2023/09/14 08:26:49;;;;;;;5.80;4.23;;;;;;;;;;5081278;28;20263;-66
2023/09/14 08:29:18;;;;;;;6.67;4.60;;;;;;;;;;5081630;28;20609;-66
2023/09/14 08:31:49;;;;;;;5.40;4.60;;;;;;;;;;5070370;28;20262;-66
2023/09/14 08:34:17;;;;;;;7.87;4.70;;;;;;;;;;5081676;28;20241;-66
2023/09/14 08:36:45;;;;;;;7.53;4.53;;;;;;;;;;5081193;28;20212;-66
2023/09/14 08:39:15;;;;;;;6.67;4.90;;;;;;;;;;5068458;28;20737;-66
2023/09/14 08:41:45;;;;;;;5.00;4.50;;;;;;;;;;5081124;28;20260;-66
2023/09/14 08:44:15;;;;;;;5.97;4.67;;;;;;;;;;5080911;28;20204;-66
2023/09/14 08:46:43;;;;;;;6.43;4.67;;;;;;;;;;5080996;28;20222;-66
2023/09/14 08:49:12;;;;;;;5.37;4.87;;;;;;;;;;5080943;28;20201;-65
2023/09/14 08:51:42;;;;;;;6.60;4.63;;;;;;;;;;5080079;28;20312;-67
2023/09/14 08:54:10;;;;;;;5.33;4.47;;;;;;;;;;5080087;28;20194;-67
2023/09/14 08:56:47;;;;;;;7.37;4.53;;;;;;;;;;5071969;28;20280;-67
2023/09/14 08:59:16;;;;;;;15.50;4.77;;;;;;;;;;5080405;28;20228;-65
2023/09/14 09:01:44;;;;;;;6.30;4.37;;;;;;;;;;5080288;28;20320;-68
2023/09/14 09:04:13;;;;;;;6.70;4.60;;;;;;;;;;5080352;28;20685;-67
2023/09/14 09:06:41;;;;;;;4.80;3.60;;;;;;;;;;5081614;28;20222;-67
2023/09/14 09:09:10;;;;;;;6.93;4.80;;;;;;;;;;5091208;28;20207;-68
2023/09/14 09:11:39;;;;;;;4.13;3.70;;;;;;;;;;5079897;28;20237;-68
2023/09/14 09:14:08;;;;;;;4.57;4.10;;;;;;;;;;5076337;28;20205;-68
2023/09/14 09:16:37;;;;;;;5.47;4.63;;;;;;;;;;5077250;28;20216;-67
2023/09/14 09:19:05;;;;;;;4.10;3.70;;;;;;;;;;5077580;28;20202;-68
2023/09/14 09:21:37;;;;;;;4.97;3.70;;;;;;;;;;5079538;28;20223;-68
2023/09/14 09:24:06;;;;;;;5.53;3.80;;;;;;;;;;5073602;28;20201;-68
2023/09/14 09:26:35;;;;;;;4.47;3.37;;;;;;;;;;5078706;28;20208;-68
2023/09/14 09:29:15;;;;;;;6.40;3.90;;;;;;;;;;5078544;28;20676;-68
2023/09/14 09:31:44;;;;;;;3.60;3.30;;;;;;;;;;5073031;28;20299;-66
2023/09/14 09:34:13;;;;;;;4.50;3.53;;;;;;;;;;5076947;28;20232;-66
2023/09/14 09:36:41;;;;;;;3.23;2.87;;;;;;;;;;5079246;28;20212;-67
2023/09/14 09:39:13;;;;;;;3.83;3.10;;;;;;;;;;5079029;28;20228;-67
2023/09/14 09:41:41;;;;;;;8.57;3.20;;;;;;;;;;5079744;28;20231;-67
2023/09/14 09:44:10;;;;;;;4.43;3.00;;;;;;;;;;5079282;28;20240;-67
2023/09/14 09:46:40;;;;;;;4.60;3.70;;;;;;;;;;5068208;28;20207;-67
2023/09/14 09:49:17;;;;;;;3.73;3.43;;;;;;;;;;5079307;28;20698;-67
2023/09/14 09:51:46;;;;;;;4.63;3.40;;;;;;;;;;5079361;28;21027;-67
2023/09/14 09:54:14;;;;;;;8.27;3.43;;;;;;;;;;5079289;28;20206;-67
2023/09/14 09:56:43;;;;;;;3.40;3.10;;;;;;;;;;5078199;28;20236;-67
2023/09/14 09:59:13;;;;;;;3.20;2.90;;;;;;;;;;5079546;28;20211;-66
2023/09/14 10:01:46;;;;;;;11.60;7.53;;;;;;;;;;5078855;28;20635;-67
2023/09/14 10:04:16;;;;;;;8.97;6.77;;;;;;;;;;5078482;28;20194;-66
2023/09/14 10:06:50;;;;;;;8.43;5.90;;;;;;;;;;5076945;28;20307;-66
2023/09/14 10:09:18;;;;;;;12.17;8.60;;;;;;;;;;5078474;28;20696;-66
2023/09/14 10:11:48;;;;;;;11.50;9.30;;;;;;;;;;5078755;28;20219;-67
2023/09/14 10:14:17;;;;;;;8.67;7.00;;;;;;;;;;5079139;28;20203;-66
2023/09/14 10:16:48;;;;;;;4.47;4.07;;;;;;;;;;5066132;28;20569;-65
2023/09/14 10:19:17;;;;;;;5.20;3.83;;;;;;;;;;5079217;28;20224;-65
2023/09/14 10:21:46;;;;;;;10.83;9.30;;;;;;;;;;5065914;28;20713;-67
2023/09/14 10:24:14;;;;;;;12.97;10.83;;;;;;;;;;5078368;28;20232;-65
2023/09/14 10:26:44;;;;;;;6.47;5.50;;;;;;;;;;5078535;28;20622;-67
2023/09/14 10:29:12;;;;;;;10.37;9.27;;;;;;;;;;5078563;28;20253;-65
2023/09/14 10:31:41;;;;;;;6.30;3.63;;;;;;;;;;5075645;28;20237;-66
2023/09/14 10:34:11;;;;;;;3.93;3.57;;;;;;;;;;5078323;28;20283;-65
2023/09/14 10:36:41;;;;;;;7.03;5.13;;;;;;;;;;5077297;28;20210;-65
2023/09/14 10:39:12;;;;;;;4.57;3.07;;;;;;;;;;5073217;28;20220;-65
2023/09/14 10:41:40;;;;;;;4.40;3.17;;;;;;;;;;5078107;28;20287;-66
2023/09/14 10:44:08;;;;;;;7.20;6.50;;;;;;;;;;5078127;28;20207;-66
2023/09/14 10:46:41;;;;;;;5.63;4.83;;;;;;;;;;5078477;28;20198;-71
2023/09/14 10:49:11;;;;;;;2.70;2.50;;;;;;;;;;5077184;28;20264;-71
2023/09/14 10:51:41;;;;;;;5.00;2.23;;;;;;;;;;5078427;28;20697;-70
2023/09/14 10:54:09;;;;;;;2.20;2.00;;;;;;;;;;5078447;28;20214;-70
2023/09/14 10:56:40;;;;;;;2.53;2.33;;;;;;;;;;5078394;28;20248;-70
2023/09/14 10:59:08;;;;;;;2.23;2.03;;;;;;;;;;5078366;28;20569;-70
2023/09/14 11:01:45;;;;;;;2.70;2.00;;;;;;;;;;5078527;28;20226;-70
2023/09/14 11:04:23;;;;;;;3.07;1.67;;;;;;;;;;5078563;28;20232;-70
2023/09/14 11:06:54;;;;;;;5.03;1.60;;;;;;;;;;5078520;28;20217;-70
2023/09/14 11:09:24;;;;;;;1.60;1.50;;;;;;;;;;5078113;28;20226;-70
2023/09/14 11:11:54;;;;;;;1.77;1.40;;;;;;;;;;5078262;28;20225;-70
2023/09/14 11:14:26;;;;;;;2.67;1.73;;;;;;;;;;5078302;28;20210;-70
2023/09/14 11:16:58;;;;;;;1.93;1.60;;;;;;;;;;5078077;28;20721;-70
2023/09/14 11:19:52;;;;;;;2.20;1.67;;;;;;;;;;5078146;28;20288;-70
2023/09/14 11:22:27;;;;;;;1.90;1.73;;;;;;;;;;5078325;28;20293;-70
2023/09/14 11:24:56;;;;;;;1.80;1.50;;;;;;;;;;5075208;28;20288;-70
2023/09/14 11:27:27;;;;;;;2.30;1.50;;;;;;;;;;5069638;28;20289;-70
2023/09/14 11:29:57;;;;;;;2.13;1.57;;;;;;;;;;5075825;28;20234;-70
2023/09/14 11:32:28;;;;;;;2.47;1.70;;;;;;;;;;5078008;28;20230;-70
2023/09/14 11:35:00;;;;;;;2.60;1.53;;;;;;;;;;5078039;28;20217;-70
2023/09/14 11:37:32;;;;;;;1.60;1.50;;;;;;;;;;5077802;28;20546;-70
2023/09/14 11:40:11;;;;;;;1.30;1.20;;;;;;;;;;5077267;28;20304;-70
2023/09/14 11:43:01;;;;;;;1.90;1.80;;;;;;;;;;5077758;28;20232;-70
2023/09/14 11:45:34;;;;;;;1.97;1.50;;;;;;;;;;5078074;28;20208;-70
2023/09/14 11:48:04;;;;;;;1.73;1.63;;;;;;;;;;5077554;28;20291;-70
2023/09/14 11:50:53;;;;;;;4.03;1.90;;;;;;;;;;5077439;28;20228;-70
2023/09/14 11:53:28;;;;;;;2.80;1.90;;;;;;;;;;5077592;28;20298;-70
2023/09/14 11:55:56;;;;;;;2.30;1.70;;;;;;;;;;5076923;28;20239;-70
2023/09/14 11:58:25;;;;;;;2.73;1.63;;;;;;;;;;5084182;28;20283;-71
2023/09/14 12:00:55;;;;;;;1.50;1.40;;;;;;;;;;5078440;28;20224;-71
2023/09/14 12:03:23;;;;;;;1.60;1.50;;;;;;;;;;5081081;28;20689;-70
2023/09/14 12:05:56;;;;;;;1.90;1.70;;;;;;;;;;5074515;28;20281;-70
2023/09/14 12:08:27;;;;;;;1.50;1.40;;;;;;;;;;5076707;28;20226;-70
2023/09/14 12:10:56;;;;;;;1.63;1.53;;;;;;;;;;5077040;28;20708;-70
2023/09/14 12:13:24;;;;;;;3.43;1.93;;;;;;;;;;5076703;28;20210;-71
2023/09/14 12:16:00;;;;;;;3.23;1.50;;;;;;;;;;5077722;28;20661;-71
2023/09/14 12:18:41;;;;;;;3.03;1.80;;;;;;;;;;5076157;28;20202;-72
2023/09/14 12:21:11;;;;;;;2.13;1.47;;;;;;;;;;5076188;28;20222;-71
2023/09/14 12:23:40;;;;;;;1.47;1.40;;;;;;;;;;5075391;28;20202;-72
2023/09/14 12:26:15;;;;;;;2.07;1.73;;;;;;;;;;5076777;28;20206;-72
2023/09/14 12:28:46;;;;;;;1.60;1.50;;;;;;;;;;5075559;28;20225;-72
2023/09/14 12:31:14;;;;;;;1.50;1.40;;;;;;;;;;5077208;28;20245;-72
2023/09/14 12:33:43;;;;;;;3.90;1.50;;;;;;;;;;5075164;28;20213;-72
2023/09/14 12:36:12;;;;;;;1.67;1.57;;;;;;;;;;5076647;28;20202;-72
2023/09/14 12:38:40;;;;;;;4.43;1.30;;;;;;;;;;5076790;28;20194;-72
2023/09/14 12:41:14;;;;;;;1.47;1.00;;;;;;;;;;5071105;28;20246;-72
2023/09/14 12:43:42;;;;;;;2.10;1.40;;;;;;;;;;5076910;28;20221;-71
2023/09/14 12:46:11;;;;;;;2.50;1.50;;;;;;;;;;5077144;28;20217;-72
2023/09/14 12:48:41;;;;;;;3.83;1.47;;;;;;;;;;5077148;28;20217;-72
2023/09/14 12:51:12;;;;;;;1.57;1.23;;;;;;;;;;5063621;28;20249;-70
2023/09/14 12:53:43;;;;;;;1.50;1.40;;;;;;;;;;5071977;28;20649;-69
2023/09/14 12:56:11;;;;;;;1.90;1.80;;;;;;;;;;5066412;28;20236;-66
2023/09/14 12:58:40;;;;;;;1.40;1.30;;;;;;;;;;5065673;28;20205;-66
2023/09/14 13:01:08;;;;;;;1.57;1.20;;;;;;;;;;5067825;28;20234;-66
2023/09/14 13:03:37;;;;;;;2.00;1.13;;;;;;;;;;5076027;28;20665;-68
2023/09/14 13:06:05;;;;;;;2.63;1.17;;;;;;;;;;5080758;28;20216;-68
2023/09/14 13:08:43;;;;;;;1.77;1.37;;;;;;;;;;5079822;28;20579;-67
2023/09/14 13:11:22;;;;;;;2.03;1.23;;;;;;;;;;5080538;28;20240;-66
2023/09/14 13:13:50;;;;;;;1.10;1.00;;;;;;;;;;5080158;28;20205;-67
2023/09/14 13:16:19;;;;;;;1.20;1.10;;;;;;;;;;5080129;28;20611;-67
2023/09/14 13:18:48;;;;;;;1.87;1.20;;;;;;;;;;5080392;28;20202;-67
2023/09/14 13:21:18;;;;;;;1.83;1.07;;;;;;;;;;5080623;28;20260;-68
2023/09/14 13:23:47;;;;;;;1.40;1.30;;;;;;;;;;5080045;28;20715;-69
2023/09/14 13:26:15;;;;;;;2.53;1.13;;;;;;;;;;5070825;28;20200;-65
2023/09/14 13:28:43;;;;;;;1.43;1.20;;;;;;;;;;5069724;28;20208;-66
2023/09/14 13:31:13;;;;;;;1.00;1.00;;;;;;;;;;5067975;28;20305;-66
2023/09/14 13:33:41;;;;;;;1.70;1.40;;;;;;;;;;5080241;28;20286;-66
2023/09/14 13:36:09;;;;;;;1.67;1.57;;;;;;;;;;5079950;28;20577;-66
2023/09/14 13:38:37;;;;;;;1.57;1.33;;;;;;;;;;5079819;28;20296;-67
2023/09/14 13:41:07;;;;;;;2.80;1.70;;;;;;;;;;5079808;28;20267;-66
2023/09/14 13:43:38;;;;;;;3.63;1.53;;;;;;;;;;5080162;28;20262;-66
2023/09/14 13:46:06;;;;;;;4.50;1.07;;;;;;;;;;5066558;28;20664;-66
2023/09/14 13:48:33;;;;;;;1.90;0.97;;;;;;;;;;5079956;28;20208;-67
2023/09/14 13:51:04;;;;;;;1.83;1.37;;;;;;;;;;5079903;28;20243;-67
2023/09/14 13:53:32;;;;;;;1.97;1.20;;;;;;;;;;5079637;28;20213;-66
2023/09/14 13:56:00;;;;;;;5.83;1.10;;;;;;;;;;5079818;28;20236;-66
2023/09/14 13:58:30;;;;;;;2.83;0.93;;;;;;;;;;5079759;28;20259;-67
2023/09/14 14:00:58;;;;;;;0.93;0.93;;;;;;;;;;5079801;28;20221;-67
2023/09/14 14:03:27;;;;;;;2.30;1.60;;;;;;;;;;5079686;28;20209;-66
2023/09/14 14:05:56;;;;;;;1.90;1.10;;;;;;;;;;5071344;28;20203;-67
2023/09/14 14:08:25;;;;;;;1.20;1.20;;;;;;;;;;5077181;28;20235;-66
2023/09/14 14:10:54;;;;;;;1.03;1.03;;;;;;;;;;5079785;28;20228;-66
2023/09/14 14:13:22;;;;;;;0.87;0.87;;;;;;;;;;5080603;28;20206;-66
2023/09/14 14:15:52;;;;;;;1.20;1.10;;;;;;;;;;5079815;28;20213;-66
2023/09/14 14:18:20;;;;;;;1.87;1.00;;;;;;;;;;5079369;28;20239;-66
2023/09/14 14:20:48;;;;;;;1.10;1.10;;;;;;;;;;5079021;28;20224;-66
2023/09/14 14:23:16;;;;;;;3.17;1.10;;;;;;;;;;5078783;28;20209;-66
2023/09/14 14:25:44;;;;;;;0.90;0.90;;;;;;;;;;5079296;28;20214;-66
2023/09/14 14:28:12;;;;;;;2.13;1.30;;;;;;;;;;5079386;28;20211;-67
2023/09/14 14:30:40;;;;;;;1.30;1.20;;;;;;;;;;5078625;28;20685;-66
2023/09/14 14:33:10;;;;;;;1.30;1.20;;;;;;;;;;5079324;28;20217;-66
2023/09/14 14:35:38;;;;;;;1.20;1.10;;;;;;;;;;5078778;28;20209;-66
2023/09/14 14:38:06;;;;;;;1.93;1.10;;;;;;;;;;5067732;28;20266;-67
2023/09/14 14:40:34;;;;;;;2.90;1.20;;;;;;;;;;5078797;28;20271;-66
2023/09/14 14:43:05;;;;;;;2.83;1.20;;;;;;;;;;5076603;28;20202;-67
2023/09/14 14:45:33;;;;;;;0.93;0.87;;;;;;;;;;5061809;28;20214;-66
2023/09/14 14:48:01;;;;;;;1.67;1.27;;;;;;;;;;5076415;28;20198;-66
2023/09/14 14:50:31;;;;;;;1.00;1.00;;;;;;;;;;5077859;28;21627;-66
2023/09/14 14:52:59;;;;;;;1.87;1.10;;;;;;;;;;5076432;28;20208;-66
2023/09/14 14:55:27;;;;;;;1.30;1.10;;;;;;;;;;5077910;28;20237;-67